Vineland Escarpment

*Note: All times are displayed in the local standard time of the station location.
**Rain - Equipment is designed to accurately record liquid precipitation; under conditions when precipitation is not in liquid form, the data displayed may not properly reflect rainfall values.

Date Max Temp
(°C)
Min Temp
(°C)
Avg Temp
(°C)
Rain (mm) Avg RH (%)
Mon, Apr 23, 2018 12.2 1.9 7.8 0.0 53.5
Sun, Apr 22, 2018 15.7 -0.1 8.9 0.0 42.0
Sat, Apr 21, 2018 14.3 -1.8 6.1 0.0 52.8
Fri, Apr 20, 2018 8.5 -0.8 2.8 0.0 59.4
Thu, Apr 19, 2018 4.0 0.5 1.9 0.0 66.1
Wed, Apr 18, 2018 3.3 0.5 1.8 0.2 76.0
Tue, Apr 17, 2018 1.4 -1.1 0.3 0.8 74.5
DateTime Avg Temp (°C) Rain (mm) RH (%)
Tue, Apr 24, 2018 18:00 12.7 0.6 80.0
Tue, Apr 24, 2018 17:00 13.9 0.0 67.3
Tue, Apr 24, 2018 16:00 15.6 0.0 51.8
Tue, Apr 24, 2018 15:00 16.8 0.0 44.3
Tue, Apr 24, 2018 14:00 17.1 0.0 44.3
Tue, Apr 24, 2018 13:00 16.3 0.0 44.0
Tue, Apr 24, 2018 12:00 15.5 0.0 45.8
Tue, Apr 24, 2018 11:00 13.7 0.0 57.5
Tue, Apr 24, 2018 10:00 13.1 0.0 63.8
Tue, Apr 24, 2018 09:00 13.1 0.0 63.0
Tue, Apr 24, 2018 08:00 12.8 0.0 59.5
Tue, Apr 24, 2018 07:00 11.8 0.0 62.8
Tue, Apr 24, 2018 06:00 11.9 0.0 61.3
Tue, Apr 24, 2018 05:00 12.0 0.0 59.5
Tue, Apr 24, 2018 04:00 11.0 0.0 59.5
Tue, Apr 24, 2018 03:00 9.9 0.0 59.0
Tue, Apr 24, 2018 02:00 6.5 0.0 69.5
Tue, Apr 24, 2018 01:00 5.1 0.0 73.3
Tue, Apr 24, 2018 00:00 5.1 0.0 71.3
Mon, Apr 23, 2018 23:00 5.4 0.0 69.0
Mon, Apr 23, 2018 22:00 5.5 0.0 67.8
Mon, Apr 23, 2018 21:00 5.6 0.0 68.0
Mon, Apr 23, 2018 20:00 7.0 0.0 63.3
Mon, Apr 23, 2018 19:00 9.2 0.0 54.8
Mon, Apr 23, 2018 18:00 10.7 0.0 47.8
Mon, Apr 23, 2018 17:00 11.7 0.0 45.5
Mon, Apr 23, 2018 16:00 12.1 0.0 44.3
Mon, Apr 23, 2018 15:00 11.9 0.0 47.8
Mon, Apr 23, 2018 14:00 10.9 0.0 49.5
Mon, Apr 23, 2018 13:00 11.3 0.0 46.3
Mon, Apr 23, 2018 12:00 11.1 0.0 44.5
Mon, Apr 23, 2018 11:00 11.0 0.0 54.5
Mon, Apr 23, 2018 10:00 10.3 0.0 48.8
Mon, Apr 23, 2018 09:00 7.5 0.0 56.8
Mon, Apr 23, 2018 08:00 5.4 0.0 57.5
Mon, Apr 23, 2018 07:00 2.7 0.0 62.3
Mon, Apr 23, 2018 06:00 2.9 0.0 58.0
Mon, Apr 23, 2018 05:00 4.2 0.0 49.8
Mon, Apr 23, 2018 04:00 7.1 0.0 38.3
Mon, Apr 23, 2018 03:00 7.9 0.0 35.0
Mon, Apr 23, 2018 02:00 6.4 0.0 46.0
Mon, Apr 23, 2018 01:00 4.6 0.0 58.5
Mon, Apr 23, 2018 00:00 9.5 0.0 34.0
Sun, Apr 22, 2018 23:00 11.4 0.0 26.0
Sun, Apr 22, 2018 22:00 11.0 0.0 28.3
Sun, Apr 22, 2018 21:00 11.5 0.0 29.0
Sun, Apr 22, 2018 20:00 14.1 0.0 22.0
Sun, Apr 22, 2018 19:00 15.5 0.0 20.0


asterix Register now to access more data! asterix